sensor_id;sensor_type;location;lat;lon;timestamp;P1;durP1;ratioP1;P2;durP2;ratioP2
15114;SDS011;7658;51.456;7.622;2023-03-05T00:00:08;6.90;;;5.80;;
15114;SDS011;7658;51.456;7.622;2023-03-05T00:02:35;14.23;;;7.20;;
15114;SDS011;7658;51.456;7.622;2023-03-05T00:05:01;8.87;;;5.30;;
15114;SDS011;7658;51.456;7.622;2023-03-05T00:07:27;7.07;;;5.90;;
15114;SDS011;7658;51.456;7.622;2023-03-05T00:09:52;6.27;;;5.50;;
15114;SDS011;7658;51.456;7.622;2023-03-05T00:12:18;7.83;;;5.30;;
15114;SDS011;7658;51.456;7.622;2023-03-05T00:14:44;8.37;;;6.50;;
15114;SDS011;7658;51.456;7.622;2023-03-05T00:17:09;10.90;;;6.67;;
15114;SDS011;7658;51.456;7.622;2023-03-05T00:19:35;13.97;;;6.73;;
15114;SDS011;7658;51.456;7.622;2023-03-05T00:22:01;10.63;;;7.37;;
15114;SDS011;7658;51.456;7.622;2023-03-05T00:24:27;16.80;;;7.30;;
15114;SDS011;7658;51.456;7.622;2023-03-05T00:26:53;11.50;;;7.27;;
15114;SDS011;7658;51.456;7.622;2023-03-05T00:29:19;8.50;;;6.70;;
15114;SDS011;7658;51.456;7.622;2023-03-05T00:31:48;9.13;;;6.53;;
15114;SDS011;7658;51.456;7.622;2023-03-05T00:34:14;11.93;;;6.10;;
15114;SDS011;7658;51.456;7.622;2023-03-05T00:36:43;6.83;;;5.90;;
15114;SDS011;7658;51.456;7.622;2023-03-05T00:39:11;12.30;;;7.30;;
15114;SDS011;7658;51.456;7.622;2023-03-05T00:41:38;6.57;;;5.97;;
15114;SDS011;7658;51.456;7.622;2023-03-05T00:44:04;9.40;;;5.97;;
15114;SDS011;7658;51.456;7.622;2023-03-05T00:46:30;7.53;;;5.93;;
15114;SDS011;7658;51.456;7.622;2023-03-05T00:48:56;5.90;;;5.37;;
15114;SDS011;7658;51.456;7.622;2023-03-05T00:51:22;11.07;;;6.00;;
15114;SDS011;7658;51.456;7.622;2023-03-05T00:53:48;12.63;;;6.43;;
15114;SDS011;7658;51.456;7.622;2023-03-05T00:56:15;8.47;;;5.30;;
15114;SDS011;7658;51.456;7.622;2023-03-05T00:58:40;11.60;;;5.57;;
15114;SDS011;7658;51.456;7.622;2023-03-05T01:01:06;11.43;;;5.63;;
15114;SDS011;7658;51.456;7.622;2023-03-05T01:03:33;8.53;;;5.90;;
15114;SDS011;7658;51.456;7.622;2023-03-05T01:06:00;8.17;;;5.33;;
15114;SDS011;7658;51.456;7.622;2023-03-05T01:08:28;14.83;;;6.87;;
15114;SDS011;7658;51.456;7.622;2023-03-05T01:10:54;11.53;;;6.83;;
15114;SDS011;7658;51.456;7.622;2023-03-05T01:13:19;9.77;;;6.70;;
15114;SDS011;7658;51.456;7.622;2023-03-05T01:15:46;10.63;;;6.83;;
15114;SDS011;7658;51.456;7.622;2023-03-05T01:18:13;13.17;;;6.97;;
15114;SDS011;7658;51.456;7.622;2023-03-05T01:20:39;7.50;;;6.80;;
15114;SDS011;7658;51.456;7.622;2023-03-05T01:23:04;18.67;;;7.93;;
15114;SDS011;7658;51.456;7.622;2023-03-05T01:25:30;11.63;;;6.80;;
15114;SDS011;7658;51.456;7.622;2023-03-05T01:27:56;13.57;;;6.87;;
15114;SDS011;7658;51.456;7.622;2023-03-05T01:30:22;10.10;;;7.03;;
15114;SDS011;7658;51.456;7.622;2023-03-05T01:32:47;13.80;;;7.63;;
15114;SDS011;7658;51.456;7.622;2023-03-05T01:35:18;16.90;;;7.20;;
15114;SDS011;7658;51.456;7.622;2023-03-05T01:37:46;12.43;;;7.20;;
15114;SDS011;7658;51.456;7.622;2023-03-05T01:40:13;12.27;;;7.03;;
15114;SDS011;7658;51.456;7.622;2023-03-05T01:42:44;15.30;;;7.10;;
15114;SDS011;7658;51.456;7.622;2023-03-05T01:45:17;12.27;;;6.90;;
15114;SDS011;7658;51.456;7.622;2023-03-05T01:47:43;11.57;;;7.13;;
15114;SDS011;7658;51.456;7.622;2023-03-05T01:50:11;15.03;;;7.53;;
15114;SDS011;7658;51.456;7.622;2023-03-05T01:52:40;14.47;;;7.63;;
15114;SDS011;7658;51.456;7.622;2023-03-05T01:55:17;12.87;;;7.70;;
15114;SDS011;7658;51.456;7.622;2023-03-05T01:57:49;14.50;;;7.47;;
15114;SDS011;7658;51.456;7.622;2023-03-05T02:00:30;11.97;;;7.53;;
15114;SDS011;7658;51.456;7.622;2023-03-05T02:03:00;14.40;;;8.27;;
15114;SDS011;7658;51.456;7.622;2023-03-05T02:05:29;14.43;;;8.63;;
15114;SDS011;7658;51.456;7.622;2023-03-05T02:07:58;13.43;;;8.60;;
15114;SDS011;7658;51.456;7.622;2023-03-05T02:10:30;12.00;;;7.90;;
15114;SDS011;7658;51.456;7.622;2023-03-05T02:13:04;18.47;;;8.17;;
15114;SDS011;7658;51.456;7.622;2023-03-05T02:15:33;19.97;;;8.43;;
15114;SDS011;7658;51.456;7.622;2023-03-05T02:17:59;12.53;;;8.47;;
15114;SDS011;7658;51.456;7.622;2023-03-05T02:20:29;11.80;;;9.03;;
15114;SDS011;7658;51.456;7.622;2023-03-05T02:23:06;13.67;;;9.00;;
15114;SDS011;7658;51.456;7.622;2023-03-05T02:25:32;11.37;;;8.40;;
15114;SDS011;7658;51.456;7.622;2023-03-05T02:28:01;19.53;;;10.13;;
15114;SDS011;7658;51.456;7.622;2023-03-05T02:30:31;18.10;;;9.20;;
15114;SDS011;7658;51.456;7.622;2023-03-05T02:32:57;15.67;;;9.37;;
15114;SDS011;7658;51.456;7.622;2023-03-05T02:35:23;16.50;;;9.60;;
15114;SDS011;7658;51.456;7.622;2023-03-05T02:37:49;12.00;;;8.47;;
15114;SDS011;7658;51.456;7.622;2023-03-05T02:40:15;21.37;;;9.53;;
15114;SDS011;7658;51.456;7.622;2023-03-05T02:42:41;19.47;;;9.50;;
15114;SDS011;7658;51.456;7.622;2023-03-05T02:45:08;17.43;;;8.73;;
15114;SDS011;7658;51.456;7.622;2023-03-05T02:47:35;19.10;;;8.70;;
15114;SDS011;7658;51.456;7.622;2023-03-05T02:50:01;20.67;;;9.10;;
15114;SDS011;7658;51.456;7.622;2023-03-05T02:52:28;23.00;;;9.83;;
15114;SDS011;7658;51.456;7.622;2023-03-05T02:54:54;18.73;;;9.47;;
15114;SDS011;7658;51.456;7.622;2023-03-05T02:57:20;15.87;;;8.80;;
15114;SDS011;7658;51.456;7.622;2023-03-05T02:59:46;11.27;;;8.13;;
15114;SDS011;7658;51.456;7.622;2023-03-05T03:02:12;18.77;;;8.53;;
15114;SDS011;7658;51.456;7.622;2023-03-05T03:04:37;14.67;;;7.90;;
15114;SDS011;7658;51.456;7.622;2023-03-05T03:07:03;17.23;;;8.90;;
15114;SDS011;7658;51.456;7.622;2023-03-05T03:09:29;13.70;;;8.50;;
15114;SDS011;7658;51.456;7.622;2023-03-05T03:11:55;11.10;;;7.30;;
15114;SDS011;7658;51.456;7.622;2023-03-05T03:14:21;15.50;;;7.87;;
15114;SDS011;7658;51.456;7.622;2023-03-05T03:16:47;15.00;;;8.20;;
15114;SDS011;7658;51.456;7.622;2023-03-05T03:19:12;12.93;;;8.30;;
15114;SDS011;7658;51.456;7.622;2023-03-05T03:21:39;19.03;;;8.73;;
15114;SDS011;7658;51.456;7.622;2023-03-05T03:24:05;13.33;;;8.30;;
15114;SDS011;7658;51.456;7.622;2023-03-05T03:26:31;12.03;;;8.57;;
15114;SDS011;7658;51.456;7.622;2023-03-05T03:28:56;18.27;;;9.37;;
15114;SDS011;7658;51.456;7.622;2023-03-05T03:31:22;15.43;;;9.53;;
15114;SDS011;7658;51.456;7.622;2023-03-05T03:33:48;16.07;;;9.70;;
15114;SDS011;7658;51.456;7.622;2023-03-05T03:36:14;14.33;;;10.13;;
15114;SDS011;7658;51.456;7.622;2023-03-05T03:38:40;15.07;;;9.37;;
15114;SDS011;7658;51.456;7.622;2023-03-05T03:41:06;19.43;;;9.83;;
15114;SDS011;7658;51.456;7.622;2023-03-05T03:43:33;17.33;;;10.30;;
15114;SDS011;7658;51.456;7.622;2023-03-05T03:46:02;18.27;;;10.20;;
15114;SDS011;7658;51.456;7.622;2023-03-05T03:48:31;15.23;;;9.73;;
15114;SDS011;7658;51.456;7.622;2023-03-05T03:50:57;16.67;;;9.80;;
15114;SDS011;7658;51.456;7.622;2023-03-05T03:53:22;20.47;;;9.50;;
15114;SDS011;7658;51.456;7.622;2023-03-05T03:55:48;23.70;;;11.00;;
15114;SDS011;7658;51.456;7.622;2023-03-05T03:58:14;17.00;;;10.27;;
15114;SDS011;7658;51.456;7.622;2023-03-05T04:00:40;12.80;;;8.40;;
15114;SDS011;7658;51.456;7.622;2023-03-05T04:03:06;14.53;;;8.50;;
15114;SDS011;7658;51.456;7.622;2023-03-05T04:05:32;14.63;;;8.83;;
15114;SDS011;7658;51.456;7.622;2023-03-05T04:07:58;14.23;;;8.50;;
15114;SDS011;7658;51.456;7.622;2023-03-05T04:10:25;21.13;;;8.97;;
15114;SDS011;7658;51.456;7.622;2023-03-05T04:12:51;13.77;;;8.47;;
15114;SDS011;7658;51.456;7.622;2023-03-05T04:15:17;9.67;;;8.37;;
15114;SDS011;7658;51.456;7.622;2023-03-05T04:17:42;20.97;;;9.10;;
15114;SDS011;7658;51.456;7.622;2023-03-05T04:20:08;14.10;;;8.73;;
15114;SDS011;7658;51.456;7.622;2023-03-05T04:22:35;14.17;;;8.07;;
15114;SDS011;7658;51.456;7.622;2023-03-05T04:25:02;16.63;;;8.30;;
15114;SDS011;7658;51.456;7.622;2023-03-05T04:27:31;16.47;;;9.50;;
15114;SDS011;7658;51.456;7.622;2023-03-05T04:29:58;18.33;;;9.70;;
15114;SDS011;7658;51.456;7.622;2023-03-05T04:32:24;12.00;;;9.07;;
15114;SDS011;7658;51.456;7.622;2023-03-05T04:34:52;17.23;;;9.97;;
15114;SDS011;7658;51.456;7.622;2023-03-05T04:37:18;15.63;;;11.07;;
15114;SDS011;7658;51.456;7.622;2023-03-05T04:39:43;16.47;;;11.07;;
15114;SDS011;7658;51.456;7.622;2023-03-05T04:42:09;16.90;;;12.30;;
15114;SDS011;7658;51.456;7.622;2023-03-05T04:44:35;23.83;;;14.20;;
15114;SDS011;7658;51.456;7.622;2023-03-05T04:47:00;27.73;;;14.07;;
15114;SDS011;7658;51.456;7.622;2023-03-05T04:49:26;21.97;;;14.70;;
15114;SDS011;7658;51.456;7.622;2023-03-05T04:51:52;25.50;;;14.47;;
15114;SDS011;7658;51.456;7.622;2023-03-05T04:54:17;20.20;;;14.70;;
15114;SDS011;7658;51.456;7.622;2023-03-05T04:56:43;20.83;;;14.33;;
15114;SDS011;7658;51.456;7.622;2023-03-05T04:59:09;21.63;;;14.60;;
15114;SDS011;7658;51.456;7.622;2023-03-05T05:01:35;20.73;;;14.07;;
15114;SDS011;7658;51.456;7.622;2023-03-05T05:04:01;26.23;;;14.00;;
15114;SDS011;7658;51.456;7.622;2023-03-05T05:06:27;30.43;;;14.87;;
15114;SDS011;7658;51.456;7.622;2023-03-05T05:08:53;19.17;;;13.37;;
15114;SDS011;7658;51.456;7.622;2023-03-05T05:11:18;25.97;;;15.20;;
15114;SDS011;7658;51.456;7.622;2023-03-05T05:13:44;22.77;;;14.67;;
15114;SDS011;7658;51.456;7.622;2023-03-05T05:16:10;22.07;;;13.90;;
15114;SDS011;7658;51.456;7.622;2023-03-05T05:18:36;25.23;;;15.17;;
15114;SDS011;7658;51.456;7.622;2023-03-05T05:21:05;25.67;;;15.17;;
15114;SDS011;7658;51.456;7.622;2023-03-05T05:23:34;22.13;;;14.53;;
15114;SDS011;7658;51.456;7.622;2023-03-05T05:26:01;22.73;;;15.57;;
15114;SDS011;7658;51.456;7.622;2023-03-05T05:28:29;19.93;;;14.77;;
15114;SDS011;7658;51.456;7.622;2023-03-05T05:30:55;21.97;;;14.47;;
15114;SDS011;7658;51.456;7.622;2023-03-05T05:33:21;23.13;;;14.57;;
15114;SDS011;7658;51.456;7.622;2023-03-05T05:35:47;20.30;;;14.37;;
15114;SDS011;7658;51.456;7.622;2023-03-05T05:38:13;25.53;;;15.87;;
15114;SDS011;7658;51.456;7.622;2023-03-05T05:40:39;22.70;;;14.20;;
15114;SDS011;7658;51.456;7.622;2023-03-05T05:43:05;28.53;;;17.83;;
15114;SDS011;7658;51.456;7.622;2023-03-05T05:45:31;36.73;;;17.73;;
15114;SDS011;7658;51.456;7.622;2023-03-05T05:47:57;26.50;;;18.37;;
15114;SDS011;7658;51.456;7.622;2023-03-05T05:50:23;31.33;;;16.97;;
15114;SDS011;7658;51.456;7.622;2023-03-05T05:52:52;26.47;;;16.20;;
15114;SDS011;7658;51.456;7.622;2023-03-05T05:55:18;26.97;;;16.27;;
15114;SDS011;7658;51.456;7.622;2023-03-05T05:57:44;28.67;;;16.40;;
15114;SDS011;7658;51.456;7.622;2023-03-05T06:00:10;25.53;;;15.60;;
15114;SDS011;7658;51.456;7.622;2023-03-05T06:02:38;27.30;;;16.40;;
15114;SDS011;7658;51.456;7.622;2023-03-05T06:05:05;31.70;;;16.33;;
15114;SDS011;7658;51.456;7.622;2023-03-05T06:07:35;27.60;;;16.90;;
15114;SDS011;7658;51.456;7.622;2023-03-05T06:10:01;28.17;;;17.13;;
15114;SDS011;7658;51.456;7.622;2023-03-05T06:12:27;27.40;;;17.03;;
15114;SDS011;7658;51.456;7.622;2023-03-05T06:14:53;28.53;;;18.50;;
15114;SDS011;7658;51.456;7.622;2023-03-05T06:17:19;33.87;;;18.53;;
15114;SDS011;7658;51.456;7.622;2023-03-05T06:19:45;32.03;;;18.67;;
15114;SDS011;7658;51.456;7.622;2023-03-05T06:22:11;30.50;;;18.07;;
15114;SDS011;7658;51.456;7.622;2023-03-05T06:24:37;32.77;;;18.93;;
15114;SDS011;7658;51.456;7.622;2023-03-05T06:27:03;34.63;;;19.30;;
15114;SDS011;7658;51.456;7.622;2023-03-05T06:29:30;36.03;;;21.80;;
15114;SDS011;7658;51.456;7.622;2023-03-05T06:31:56;37.40;;;21.23;;
15114;SDS011;7658;51.456;7.622;2023-03-05T06:34:22;45.03;;;22.27;;
15114;SDS011;7658;51.456;7.622;2023-03-05T06:36:47;34.50;;;22.13;;
15114;SDS011;7658;51.456;7.622;2023-03-05T06:39:13;40.40;;;22.83;;
15114;SDS011;7658;51.456;7.622;2023-03-05T06:41:39;41.10;;;22.50;;
15114;SDS011;7658;51.456;7.622;2023-03-05T06:44:05;41.30;;;21.43;;
15114;SDS011;7658;51.456;7.622;2023-03-05T06:46:32;43.70;;;20.57;;
15114;SDS011;7658;51.456;7.622;2023-03-05T06:49:00;45.97;;;22.73;;
15114;SDS011;7658;51.456;7.622;2023-03-05T06:51:28;41.47;;;23.73;;
15114;SDS011;7658;51.456;7.622;2023-03-05T06:53:58;46.07;;;23.63;;
15114;SDS011;7658;51.456;7.622;2023-03-05T06:56:25;42.87;;;24.03;;
15114;SDS011;7658;51.456;7.622;2023-03-05T06:58:51;42.33;;;23.03;;
15114;SDS011;7658;51.456;7.622;2023-03-05T07:01:18;44.97;;;23.23;;
15114;SDS011;7658;51.456;7.622;2023-03-05T07:03:47;46.03;;;24.30;;
15114;SDS011;7658;51.456;7.622;2023-03-05T07:06:17;38.73;;;22.70;;
15114;SDS011;7658;51.456;7.622;2023-03-05T07:08:42;38.87;;;23.97;;
15114;SDS011;7658;51.456;7.622;2023-03-05T07:11:16;44.63;;;24.47;;
15114;SDS011;7658;51.456;7.622;2023-03-05T07:13:43;48.00;;;24.00;;
15114;SDS011;7658;51.456;7.622;2023-03-05T07:16:18;47.23;;;25.43;;
15114;SDS011;7658;51.456;7.622;2023-03-05T07:18:47;40.93;;;21.90;;
15114;SDS011;7658;51.456;7.622;2023-03-05T07:21:14;34.50;;;20.33;;
15114;SDS011;7658;51.456;7.622;2023-03-05T07:23:42;31.03;;;20.43;;
15114;SDS011;7658;51.456;7.622;2023-03-05T07:26:07;32.70;;;19.90;;
15114;SDS011;7658;51.456;7.622;2023-03-05T07:28:34;35.00;;;20.33;;
15114;SDS011;7658;51.456;7.622;2023-03-05T07:31:01;38.30;;;21.77;;
15114;SDS011;7658;51.456;7.622;2023-03-05T07:33:32;45.33;;;22.37;;
15114;SDS011;7658;51.456;7.622;2023-03-05T07:35:59;36.13;;;22.97;;
15114;SDS011;7658;51.456;7.622;2023-03-05T07:38:26;35.73;;;24.97;;
15114;SDS011;7658;51.456;7.622;2023-03-05T07:40:51;51.13;;;25.63;;
15114;SDS011;7658;51.456;7.622;2023-03-05T07:43:17;49.90;;;27.00;;
15114;SDS011;7658;51.456;7.622;2023-03-05T07:45:43;50.90;;;26.90;;
15114;SDS011;7658;51.456;7.622;2023-03-05T07:48:11;53.40;;;28.40;;
15114;SDS011;7658;51.456;7.622;2023-03-05T07:50:43;46.77;;;28.10;;
15114;SDS011;7658;51.456;7.622;2023-03-05T07:53:09;46.90;;;28.37;;
15114;SDS011;7658;51.456;7.622;2023-03-05T07:55:40;53.20;;;28.53;;
15114;SDS011;7658;51.456;7.622;2023-03-05T07:58:11;52.80;;;28.83;;
15114;SDS011;7658;51.456;7.622;2023-03-05T08:00:37;47.40;;;30.20;;
15114;SDS011;7658;51.456;7.622;2023-03-05T08:03:04;52.40;;;29.30;;
15114;SDS011;7658;51.456;7.622;2023-03-05T08:05:30;53.20;;;30.70;;
15114;SDS011;7658;51.456;7.622;2023-03-05T08:07:56;58.10;;;32.03;;
15114;SDS011;7658;51.456;7.622;2023-03-05T08:10:22;50.17;;;30.73;;
15114;SDS011;7658;51.456;7.622;2023-03-05T08:12:47;50.80;;;30.63;;
15114;SDS011;7658;51.456;7.622;2023-03-05T08:15:13;48.33;;;30.23;;
15114;SDS011;7658;51.456;7.622;2023-03-05T08:17:39;49.97;;;29.77;;
15114;SDS011;7658;51.456;7.622;2023-03-05T08:20:05;55.63;;;28.83;;
15114;SDS011;7658;51.456;7.622;2023-03-05T08:22:34;62.73;;;39.70;;
15114;SDS011;7658;51.456;7.622;2023-03-05T08:25:04;57.97;;;33.17;;
15114;SDS011;7658;51.456;7.622;2023-03-05T08:27:30;59.13;;;31.83;;
15114;SDS011;7658;51.456;7.622;2023-03-05T08:29:56;56.43;;;31.30;;
15114;SDS011;7658;51.456;7.622;2023-03-05T08:32:22;51.57;;;32.63;;
15114;SDS011;7658;51.456;7.622;2023-03-05T08:34:48;58.07;;;34.27;;
15114;SDS011;7658;51.456;7.622;2023-03-05T08:37:14;49.83;;;30.27;;
15114;SDS011;7658;51.456;7.622;2023-03-05T08:39:39;53.37;;;35.27;;
15114;SDS011;7658;51.456;7.622;2023-03-05T08:42:05;62.80;;;38.63;;
15114;SDS011;7658;51.456;7.622;2023-03-05T08:44:31;59.23;;;34.87;;
15114;SDS011;7658;51.456;7.622;2023-03-05T08:46:57;52.77;;;32.57;;
15114;SDS011;7658;51.456;7.622;2023-03-05T08:49:22;40.97;;;28.40;;
15114;SDS011;7658;51.456;7.622;2023-03-05T08:51:49;49.13;;;29.33;;
15114;SDS011;7658;51.456;7.622;2023-03-05T08:54:17;43.70;;;27.03;;
15114;SDS011;7658;51.456;7.622;2023-03-05T08:56:43;41.77;;;26.97;;
15114;SDS011;7658;51.456;7.622;2023-03-05T08:59:10;40.50;;;27.23;;
15114;SDS011;7658;51.456;7.622;2023-03-05T09:01:35;37.27;;;25.57;;
15114;SDS011;7658;51.456;7.622;2023-03-05T09:04:04;40.03;;;26.33;;
15114;SDS011;7658;51.456;7.622;2023-03-05T09:06:30;43.43;;;27.20;;
15114;SDS011;7658;51.456;7.622;2023-03-05T09:08:56;45.20;;;26.83;;
15114;SDS011;7658;51.456;7.622;2023-03-05T09:11:21;38.77;;;26.63;;
15114;SDS011;7658;51.456;7.622;2023-03-05T09:13:47;35.57;;;23.90;;
15114;SDS011;7658;51.456;7.622;2023-03-05T09:16:14;36.60;;;23.80;;
15114;SDS011;7658;51.456;7.622;2023-03-05T09:18:41;41.57;;;23.23;;
15114;SDS011;7658;51.456;7.622;2023-03-05T09:21:08;34.20;;;22.97;;
15114;SDS011;7658;51.456;7.622;2023-03-05T09:23:36;37.63;;;23.80;;
15114;SDS011;7658;51.456;7.622;2023-03-05T09:26:06;36.43;;;23.67;;
15114;SDS011;7658;51.456;7.622;2023-03-05T09:28:33;32.33;;;23.27;;
15114;SDS011;7658;51.456;7.622;2023-03-05T09:31:03;34.00;;;24.03;;
15114;SDS011;7658;51.456;7.622;2023-03-05T09:33:30;27.90;;;21.17;;
15114;SDS011;7658;51.456;7.622;2023-03-05T09:35:56;35.57;;;23.20;;
15114;SDS011;7658;51.456;7.622;2023-03-05T09:38:22;34.80;;;22.87;;
15114;SDS011;7658;51.456;7.622;2023-03-05T09:40:51;37.87;;;23.50;;
15114;SDS011;7658;51.456;7.622;2023-03-05T09:48:51;34.10;;;22.83;;
15114;SDS011;7658;51.456;7.622;2023-03-05T09:51:23;36.80;;;22.33;;
15114;SDS011;7658;51.456;7.622;2023-03-05T09:53:52;30.73;;;21.80;;
15114;SDS011;7658;51.456;7.622;2023-03-05T09:56:35;32.17;;;20.53;;
15114;SDS011;7658;51.456;7.622;2023-03-05T10:01:38;28.33;;;18.80;;
15114;SDS011;7658;51.456;7.622;2023-03-05T10:04:13;26.30;;;18.17;;
15114;SDS011;7658;51.456;7.622;2023-03-05T10:06:58;25.33;;;18.50;;
15114;SDS011;7658;51.456;7.622;2023-03-05T10:09:47;27.20;;;20.00;;
15114;SDS011;7658;51.456;7.622;2023-03-05T10:12:19;23.17;;;18.87;;
15114;SDS011;7658;51.456;7.622;2023-03-05T10:14:49;31.20;;;20.90;;
15114;SDS011;7658;51.456;7.622;2023-03-05T10:22:33;24.63;;;19.43;;
15114;SDS011;7658;51.456;7.622;2023-03-05T10:25:25;27.77;;;19.63;;
15114;SDS011;7658;51.456;7.622;2023-03-05T10:28:03;28.00;;;20.80;;
15114;SDS011;7658;51.456;7.622;2023-03-05T10:41:29;27.70;;;19.60;;
15114;SDS011;7658;51.456;7.622;2023-03-05T10:46:33;23.63;;;17.07;;
15114;SDS011;7658;51.456;7.622;2023-03-05T10:49:03;23.70;;;18.60;;
15114;SDS011;7658;51.456;7.622;2023-03-05T10:51:37;27.97;;;18.43;;
15114;SDS011;7658;51.456;7.622;2023-03-05T10:59:33;28.57;;;18.87;;
15114;SDS011;7658;51.456;7.622;2023-03-05T11:02:06;29.87;;;20.00;;
15114;SDS011;7658;51.456;7.622;2023-03-05T11:04:34;30.40;;;20.50;;
15114;SDS011;7658;51.456;7.622;2023-03-05T11:10:00;26.83;;;20.00;;
15114;SDS011;7658;51.456;7.622;2023-03-05T11:12:32;19.10;;;15.27;;
15114;SDS011;7658;51.456;7.622;2023-03-05T11:15:02;18.30;;;14.63;;
15114;SDS011;7658;51.456;7.622;2023-03-05T11:20:49;14.30;;;12.43;;
15114;SDS011;7658;51.456;7.622;2023-03-05T11:25:51;14.77;;;11.73;;
15114;SDS011;7658;51.456;7.622;2023-03-05T11:30:53;17.17;;;12.60;;
15114;SDS011;7658;51.456;7.622;2023-03-05T11:33:40;19.33;;;12.87;;
15114;SDS011;7658;51.456;7.622;2023-03-05T11:38:56;17.47;;;14.50;;
15114;SDS011;7658;51.456;7.622;2023-03-05T11:41:26;16.07;;;13.80;;
15114;SDS011;7658;51.456;7.622;2023-03-05T11:43:58;18.87;;;14.83;;
15114;SDS011;7658;51.456;7.622;2023-03-05T11:46:28;17.93;;;14.13;;
15114;SDS011;7658;51.456;7.622;2023-03-05T11:48:58;18.10;;;14.77;;
15114;SDS011;7658;51.456;7.622;2023-03-05T11:51:27;17.97;;;13.77;;
15114;SDS011;7658;51.456;7.622;2023-03-05T11:54:09;22.30;;;13.07;;
15114;SDS011;7658;51.456;7.622;2023-03-05T11:56:40;17.73;;;13.10;;
15114;SDS011;7658;51.456;7.622;2023-03-05T12:01:54;16.53;;;11.13;;
15114;SDS011;7658;51.456;7.622;2023-03-05T12:04:21;14.27;;;10.10;;
15114;SDS011;7658;51.456;7.622;2023-03-05T12:06:55;14.30;;;11.07;;
15114;SDS011;7658;51.456;7.622;2023-03-05T12:18:16;10.00;;;9.00;;
15114;SDS011;7658;51.456;7.622;2023-03-05T12:23:09;12.27;;;10.23;;
15114;SDS011;7658;51.456;7.622;2023-03-05T12:25:49;14.60;;;11.33;;
15114;SDS011;7658;51.456;7.622;2023-03-05T12:28:17;14.67;;;11.07;;
15114;SDS011;7658;51.456;7.622;2023-03-05T12:37:03;13.60;;;11.43;;
15114;SDS011;7658;51.456;7.622;2023-03-05T12:39:41;11.77;;;10.13;;
15114;SDS011;7658;51.456;7.622;2023-03-05T12:47:47;11.13;;;8.53;;
15114;SDS011;7658;51.456;7.622;2023-03-05T12:53:13;13.47;;;9.73;;
15114;SDS011;7658;51.456;7.622;2023-03-05T13:03:39;11.20;;;8.53;;
15114;SDS011;7658;51.456;7.622;2023-03-05T13:06:28;11.93;;;8.83;;
15114;SDS011;7658;51.456;7.622;2023-03-05T13:09:00;9.63;;;8.50;;
15114;SDS011;7658;51.456;7.622;2023-03-05T13:11:41;10.27;;;8.53;;
15114;SDS011;7658;51.456;7.622;2023-03-05T13:14:44;10.60;;;9.50;;
15114;SDS011;7658;51.456;7.622;2023-03-05T13:17:02;9.23;;;8.33;;
15114;SDS011;7658;51.456;7.622;2023-03-05T13:19:59;10.73;;;8.33;;
15114;SDS011;7658;51.456;7.622;2023-03-05T13:22:30;9.87;;;8.90;;
15114;SDS011;7658;51.456;7.622;2023-03-05T13:25:03;11.20;;;9.40;;
15114;SDS011;7658;51.456;7.622;2023-03-05T13:27:41;9.20;;;8.27;;
15114;SDS011;7658;51.456;7.622;2023-03-05T13:30:19;9.80;;;8.80;;
15114;SDS011;7658;51.456;7.622;2023-03-05T13:32:48;10.80;;;9.70;;
15114;SDS011;7658;51.456;7.622;2023-03-05T13:35:14;11.30;;;9.70;;
15114;SDS011;7658;51.456;7.622;2023-03-05T13:37:40;11.70;;;10.13;;
15114;SDS011;7658;51.456;7.622;2023-03-05T13:40:17;13.20;;;9.50;;
15114;SDS011;7658;51.456;7.622;2023-03-05T13:42:54;11.20;;;9.17;;
15114;SDS011;7658;51.456;7.622;2023-03-05T13:45:23;16.00;;;10.57;;
15114;SDS011;7658;51.456;7.622;2023-03-05T13:47:58;11.50;;;9.67;;
15114;SDS011;7658;51.456;7.622;2023-03-05T13:52:55;8.80;;;6.83;;
15114;SDS011;7658;51.456;7.622;2023-03-05T13:55:42;8.10;;;7.30;;
15114;SDS011;7658;51.456;7.622;2023-03-05T13:58:39;8.00;;;7.13;;
15114;SDS011;7658;51.456;7.622;2023-03-05T14:01:33;9.50;;;8.60;;
15114;SDS011;7658;51.456;7.622;2023-03-05T14:04:07;11.40;;;8.90;;
15114;SDS011;7658;51.456;7.622;2023-03-05T14:06:47;10.00;;;8.93;;
15114;SDS011;7658;51.456;7.622;2023-03-05T14:09:24;13.97;;;9.63;;
15114;SDS011;7658;51.456;7.622;2023-03-05T14:12:06;9.80;;;8.80;;
15114;SDS011;7658;51.456;7.622;2023-03-05T14:14:45;11.43;;;10.30;;
15114;SDS011;7658;51.456;7.622;2023-03-05T14:22:36;10.03;;;8.97;;
15114;SDS011;7658;51.456;7.622;2023-03-05T14:25:03;10.30;;;8.97;;
15114;SDS011;7658;51.456;7.622;2023-03-05T14:27:32;9.77;;;8.80;;
15114;SDS011;7658;51.456;7.622;2023-03-05T14:29:59;10.83;;;9.70;;
15114;SDS011;7658;51.456;7.622;2023-03-05T14:32:33;11.70;;;9.53;;
15114;SDS011;7658;51.456;7.622;2023-03-05T14:35:01;12.00;;;9.40;;
15114;SDS011;7658;51.456;7.622;2023-03-05T14:37:31;12.93;;;10.00;;
15114;SDS011;7658;51.456;7.622;2023-03-05T14:40:28;12.73;;;10.23;;
15114;SDS011;7658;51.456;7.622;2023-03-05T14:42:58;12.03;;;9.20;;
15114;SDS011;7658;51.456;7.622;2023-03-05T14:45:26;10.90;;;9.80;;
15114;SDS011;7658;51.456;7.622;2023-03-05T14:47:55;11.80;;;10.57;;
15114;SDS011;7658;51.456;7.622;2023-03-05T14:50:26;10.27;;;9.27;;
15114;SDS011;7658;51.456;7.622;2023-03-05T14:53:06;9.30;;;8.13;;
15114;SDS011;7658;51.456;7.622;2023-03-05T14:55:34;11.07;;;8.87;;
15114;SDS011;7658;51.456;7.622;2023-03-05T14:58:12;10.63;;;8.63;;
15114;SDS011;7658;51.456;7.622;2023-03-05T15:00:40;9.70;;;8.80;;
15114;SDS011;7658;51.456;7.622;2023-03-05T15:03:10;9.50;;;8.60;;
15114;SDS011;7658;51.456;7.622;2023-03-05T15:05:37;11.40;;;9.00;;
15114;SDS011;7658;51.456;7.622;2023-03-05T15:08:03;13.03;;;8.63;;
15114;SDS011;7658;51.456;7.622;2023-03-05T15:10:30;9.87;;;8.97;;
15114;SDS011;7658;51.456;7.622;2023-03-05T15:12:55;11.97;;;10.07;;
15114;SDS011;7658;51.456;7.622;2023-03-05T15:15:21;11.10;;;9.90;;
15114;SDS011;7658;51.456;7.622;2023-03-05T15:17:48;12.07;;;10.80;;
15114;SDS011;7658;51.456;7.622;2023-03-05T15:20:23;11.90;;;10.47;;
15114;SDS011;7658;51.456;7.622;2023-03-05T15:22:51;11.73;;;10.50;;
15114;SDS011;7658;51.456;7.622;2023-03-05T15:25:18;12.43;;;11.13;;
15114;SDS011;7658;51.456;7.622;2023-03-05T15:27:44;20.57;;;10.87;;
15114;SDS011;7658;51.456;7.622;2023-03-05T15:30:25;11.13;;;9.83;;
15114;SDS011;7658;51.456;7.622;2023-03-05T15:32:59;11.90;;;10.37;;
15114;SDS011;7658;51.456;7.622;2023-03-05T15:35:27;14.50;;;10.63;;
15114;SDS011;7658;51.456;7.622;2023-03-05T15:37:53;12.10;;;10.80;;
15114;SDS011;7658;51.456;7.622;2023-03-05T15:40:19;11.57;;;10.07;;
15114;SDS011;7658;51.456;7.622;2023-03-05T15:42:45;13.17;;;10.10;;
15114;SDS011;7658;51.456;7.622;2023-03-05T15:45:11;15.80;;;11.10;;
15114;SDS011;7658;51.456;7.622;2023-03-05T15:47:37;12.07;;;10.87;;
15114;SDS011;7658;51.456;7.622;2023-03-05T15:50:03;17.93;;;12.57;;
15114;SDS011;7658;51.456;7.622;2023-03-05T15:52:30;13.17;;;11.17;;
15114;SDS011;7658;51.456;7.622;2023-03-05T15:54:55;17.83;;;13.60;;
15114;SDS011;7658;51.456;7.622;2023-03-05T15:57:21;15.40;;;13.73;;
15114;SDS011;7658;51.456;7.622;2023-03-05T15:59:47;16.70;;;13.33;;
15114;SDS011;7658;51.456;7.622;2023-03-05T16:02:13;15.43;;;13.30;;
15114;SDS011;7658;51.456;7.622;2023-03-05T16:04:39;17.57;;;14.37;;
15114;SDS011;7658;51.456;7.622;2023-03-05T16:07:04;19.53;;;14.10;;
15114;SDS011;7658;51.456;7.622;2023-03-05T16:09:33;17.63;;;13.87;;
15114;SDS011;7658;51.456;7.622;2023-03-05T16:12:02;18.20;;;13.23;;
15114;SDS011;7658;51.456;7.622;2023-03-05T16:14:31;17.90;;;14.50;;
15114;SDS011;7658;51.456;7.622;2023-03-05T16:16:58;17.87;;;13.83;;
15114;SDS011;7658;51.456;7.622;2023-03-05T16:19:25;17.00;;;13.77;;